Latest Weather Observations for Lihou Reef Lighthouse

IDQ60801

Issued at 9:05 pm EST Tuesday 22 July 2014 (issued every 30 minutes, with the page automatically refreshed every 10 minutes)

About weather observations | Map of weather stations | Latest weather observations for QLD | Other Formats
Station Details ID: 200880 Name: LIHOU REEF LIGHTHOUSE Lat: -17.13 Lon: 152.15 Height: 0.0 m
Data from the previous 72 hours. | See also: Recent months for locations in Queensland
Date/Time
EST
Temp
°C
App
Temp
°C
Dew
Point
Rel
Hum
%
Delta-T
°C
Wind Press
QNH
hPa
Press
MSL
hPa
Rain
since 9 am
mm
Dir
 
Spd
km/h
Gust
km/h
Spd
kts
Gust
kts
22/09:00pm 22.6 - - - - SE 30 37 16 20 1017.6 1017.5 -
22/08:30pm 22.6 - - - - SE 30 35 16 19 1017.3 - -
22/08:00pm 22.7 - - - - SE 30 37 16 20 1017.4 1017.3 -
22/07:30pm 22.7 - - - - SE 30 37 16 20 1017.0 - -
22/07:00pm 22.8 - - - - SE 30 37 16 20 1016.7 1016.6 -
22/06:30pm 22.8 - - - - SE 30 35 16 19 1016.4 - -
22/06:00pm 22.9 - - - - SE 30 37 16 20 1015.9 1015.8 -
22/05:30pm 22.9 - - - - SE 28 32 15 17 1015.6 - -
22/05:00pm 23.0 - - - - SE 28 33 15 18 1015.5 1015.4 -
22/04:30pm 23.0 - - - - SE 26 30 14 16 1015.2 - -
22/04:00pm 23.0 - - - - SE 24 28 13 15 1015.0 1014.9 -
22/03:30pm 23.1 - - - - SE 24 30 13 16 1014.8 - -
22/03:00pm 23.1 - - - - SE 24 30 13 16 1014.8 1014.7 -
22/02:30pm 23.1 - - - - SE 26 30 14 16 1014.8 - -
22/02:00pm 23.1 - - - - SE 24 32 13 17 1015.1 1015.0 -
22/01:30pm 23.1 - - - - SE 24 30 13 16 1015.3 - -
22/01:00pm 23.1 - - - - SE 24 30 13 16 1015.7 1015.6 -
22/12:30pm 23.0 - - - - SE 24 30 13 16 1016.2 - -
22/12:00pm 22.8 - - - - SE 26 30 14 16 1016.7 1016.6 -
22/11:30am 22.8 - - - - SE 26 32 14 17 1017.2 - -
22/11:00am 23.0 - - - - SE 28 32 15 17 1017.6 1017.5 -
22/10:30am 22.8 - - - - SE 28 32 15 17 1018.0 - -
22/10:00am 23.0 - - - - SE 28 32 15 17 1018.2 1018.1 -
22/09:30am 22.9 - - - - SE 26 32 14 17 1018.5 - -
22/09:00am 23.0 - - - - SE 22 26 12 14 1018.5 1018.4 -
22/08:30am 23.2 - - - - SE 22 28 12 15 1018.5 - -
22/08:00am 23.2 - - - - SE 22 26 12 14 1018.1 1018.0 -
22/07:30am 22.8 - - - - SE 26 30 14 16 1017.9 - -
22/07:00am 22.9 - - - - SE 22 28 12 15 1017.6 1017.5 -
22/06:30am 22.4 - - - - SE 24 30 13 16 1017.2 - -
22/06:00am 22.4 - - - - SE 26 32 14 17 1016.8 1016.7 -
22/05:30am 22.4 - - - - SE 26 32 14 17 1016.5 - -
22/05:00am 22.4 - - - - SE 26 32 14 17 1016.3 1016.2 -
22/04:30am 22.4 - - - - SE 24 28 13 15 1016.4 - -
22/04:00am 22.4 - - - - SE 24 28 13 15 1016.3 1016.2 -
22/03:30am 22.5 - - - - SSE 24 28 13 15 1016.5 - -
22/03:00am 22.6 - - - - SSE 22 26 12 14 1016.7 1016.6 -
22/02:30am 22.6 - - - - SSE 20 26 11 14 1016.9 - -
22/02:00am 22.5 - - - - SE 20 26 11 14 1017.1 1017.0 -
22/01:30am 22.6 - - - - SE 20 24 11 13 1017.3 - -
22/01:00am 22.6 - - - - SE 20 26 11 14 1017.4 1017.3 -
22/12:30am 22.6 - - - - SE 22 26 12 14 1017.7 - -
22/12:00am 22.7 - - - - SE 20 24 11 13 1017.8 1017.7 -
 
Date/Time
EST
Temp
°C
App
Temp
°C
Dew
Point
Rel
Hum
%
Delta-T
°C
Wind Press
QNH
hPa
Press
MSL
hPa
Rain
since 9 am
mm
Dir
 
Spd
km/h
Gust
km/h
Spd
kts
Gust
kts
21/11:30pm 22.6 - - - - SE 22 28 12 15 1018.1 - -
21/11:00pm 22.9 - - - - SE 20 28 11 15 1018.2 1018.1 -
21/10:30pm 22.9 - - - - SE 20 24 11 13 1018.4 - -
21/10:00pm 22.8 - - - - SE 24 30 13 16 1018.4 1018.3 -
21/09:30pm 22.9 - - - - SE 22 28 12 15 1018.5 - -
21/09:00pm 22.8 - - - - SE 22 26 12 14 1018.4 1018.3 -
21/08:30pm 23.0 - - - - SE 22 28 12 15 1018.2 - -
21/08:00pm 22.8 - - - - SE 22 28 12 15 1017.9 1017.8 -
21/07:30pm 22.7 - - - - SE 22 28 12 15 1017.7 - -
21/07:00pm 22.8 - - - - SE 22 30 12 16 1017.6 1017.5 -
21/06:30pm 22.9 - - - - SE 20 28 11 15 1017.4 - -
21/06:00pm 23.0 - - - - SE 22 26 12 14 1017.0 1016.9 -
21/05:30pm 22.7 - - - - SE 22 28 12 15 1016.6 - -
21/05:00pm 22.9 - - - - SE 24 30 13 16 1016.2 1016.1 -
21/04:30pm 22.9 - - - - SE 24 28 13 15 1015.8 - -
21/04:00pm 23.0 - - - - SE 22 26 12 14 1015.7 1015.6 -
21/03:30pm 22.9 - - - - SE 24 30 13 16 1015.7 - -
21/03:00pm 22.9 - - - - SE 26 32 14 17 1015.7 1015.6 -
21/02:30pm 23.0 - - - - SE 22 28 12 15 1015.9 - -
21/02:00pm 23.0 - - - - SE 22 26 12 14 1016.1 1016.0 -
21/01:30pm 22.7 - - - - SE 22 26 12 14 1016.3 - -
21/01:00pm 22.7 - - - - SSE 22 30 12 16 1016.6 1016.5 -
21/12:30pm 22.5 - - - - SSE 24 30 13 16 1016.9 - -
21/12:00pm 22.6 - - - - SSE 22 28 12 15 1017.3 1017.2 -
21/11:30am 22.7 - - - - SSE 22 28 12 15 1017.8 - -
21/11:00am 22.8 - - - - SE 20 24 11 13 1018.2 1018.1 -
21/10:30am 22.4 - - - - SE 20 26 11 14 1018.5 - -
21/10:00am 22.7 - - - - SE 20 26 11 14 1018.9 1018.8 -
21/09:30am 22.8 - - - - SE 20 26 11 14 1019.1 - -
21/09:00am 22.7 - - - - SE 24 30 13 16 1019.1 1019.0 -
21/08:30am 22.7 - - - - SE 24 30 13 16 1018.9 - -
21/08:00am 22.7 - - - - SE 24 30 13 16 1018.7 1018.6 -
21/07:30am 22.4 - - - - SE 24 30 13 16 1018.4 - -
21/07:00am 22.2 - - - - SE 28 33 15 18 1018.1 1018.0 -
21/06:30am 22.1 - - - - SE 30 35 16 19 1017.7 - -
21/06:00am 22.0 - - - - SE 30 35 16 19 1017.4 1017.3 -
21/05:30am 22.3 - - - - SE 30 39 16 21 1017.0 - -
21/05:00am 22.1 - - - - SSE 26 33 14 18 1016.9 1016.8 -
21/04:30am 21.8 - - - - SSE 22 28 12 15 1016.9 - -
21/04:00am 21.8 - - - - SE 26 35 14 19 1017.0 1016.9 -
21/03:30am 22.1 - - - - SE 26 33 14 18 1016.8 - -
21/03:00am 22.0 - - - - SE 24 33 13 18 1016.9 1016.8 -
21/02:30am 22.0 - - - - SE 24 32 13 17 1017.0 - -
21/02:00am 22.3 - - - - SE 28 33 15 18 1017.3 1017.2 -
21/01:30am 22.4 - - - - SE 28 33 15 18 1017.5 - -
21/01:00am 22.5 - - - - SE 28 35 15 19 1017.8 1017.7 -
21/12:30am 22.4 - - - - SE 28 35 15 19 1018.0 - -
21/12:00am 22.3 - - - - SE 24 30 13 16 1018.2 1018.1 -
 
Date/Time
EST
Temp
°C
App
Temp
°C
Dew
Point
Rel
Hum
%
Delta-T
°C
Wind Press
QNH
hPa
Press
MSL
hPa
Rain
since 9 am
mm
Dir
 
Spd
km/h
Gust
km/h
Spd
kts
Gust
kts
20/11:30pm 22.4 - - - - SE 26 33 14 18 1018.4 - -
20/11:00pm 22.3 - - - - SE 28 35 15 19 1018.6 1018.5 -
20/10:30pm 22.3 - - - - SE 28 35 15 19 1018.8 - -
20/10:00pm 22.4 - - - - SE 26 32 14 17 1018.9 1018.8 -
20/09:30pm 22.4 - - - - SSE 28 33 15 18 1018.9 - -
20/09:00pm 22.3 - - - - SSE 24 30 13 16 1019.0 1018.9 -
20/08:30pm 22.3 - - - - SSE 32 39 17 21 1018.6 - -
20/08:00pm 22.3 - - - - SSE 32 41 17 22 1018.3 1018.2 -
20/07:30pm 22.4 - - - - SSE 32 39 17 21 1018.0 - -
20/07:00pm 22.3 - - - - SE 24 32 13 17 1017.6 1017.5 -
20/06:30pm 22.2 - - - - SSE 26 32 14 17 1017.4 - -
20/06:00pm 22.3 - - - - SSE 24 33 13 18 1017.0 1016.9 -
20/05:30pm 22.1 - - - - SSE 28 33 15 18 1016.8 - -
20/05:00pm 22.2 - - - - SSE 24 30 13 16 1016.6 1016.5 -
20/04:30pm 22.1 - - - - SSE 22 30 12 16 1016.6 - -
20/04:00pm 22.1 - - - - SE 22 28 12 15 1016.5 1016.4 -
20/03:30pm 22.1 - - - - SSE 24 33 13 18 1016.2 - -
20/03:00pm 21.9 - - - - SE 22 30 12 16 1016.2 1016.1 -
20/02:30pm 22.1 - - - - SE 22 28 12 15 1015.9 - -
20/02:00pm 22.1 - - - - SE 22 28 12 15 1015.9 1015.8 -
20/01:30pm 22.2 - - - - SE 20 26 11 14 1016.1 - -
20/01:00pm 22.3 - - - - SE 22 26 12 14 1016.2 1016.1 -
20/12:30pm 22.1 - - - - SE 20 26 11 14 1016.5 - -
20/12:00pm 22.1 - - - - SE 22 28 12 15 1017.0 1016.9 -
20/11:30am 21.9 - - - - SE 24 33 13 18 1017.2 - -
20/11:00am 21.8 - - - - SSE 26 32 14 17 1017.4 1017.3 -
20/10:30am 21.9 - - - - SE 26 33 14 18 1017.5 - -
20/10:00am 21.8 - - - - SE 26 32 14 17 1017.7 1017.6 -
20/09:30am 22.0 - - - - ESE 20 28 11 15 1018.0 - -
20/09:00am 21.5 - - - - SE 24 30 13 16 1018.0 1017.9 -
20/08:30am 21.7 - - - - SSE 24 30 13 16 1018.1 - -
20/08:00am 21.5 - - - - SSE 20 30 11 16 1018.0 1017.9 -
20/07:30am 21.4 - - - - SE 26 32 14 17 1017.9 - -
20/07:00am 21.2 - - - - SSE 20 26 11 14 1017.7 1017.6 -
20/06:30am 21.4 - - - - SSE 28 37 15 20 1017.4 - -
20/06:00am 21.2 - - - - S 30 37 16 20 1017.2 1017.1 -
20/05:30am 21.3 - - - - SE 26 32 14 17 1017.0 - -
20/05:00am 20.9 - - - - SSE 30 39 16 21 1016.5 1016.4 -
20/04:30am 21.0 - - - - SSE 32 41 17 22 1016.1 - -
20/04:00am 21.2 - - - - SSE 28 39 15 21 1016.2 1016.1 -
20/03:30am 21.1 - - - - S 35 43 19 23 1016.3 - -
20/03:00am 21.0 - - - - S 30 41 16 22 1016.4 1016.3 -
20/02:30am 21.1 - - - - SSE 33 43 18 23 1016.7 - -
20/02:00am 20.9 - - - - SSE 26 35 14 19 1016.8 1016.7 -
20/01:30am 21.1 - - - - SSE 28 33 15 18 1017.1 - -
20/01:00am 21.1 - - - - SSE 26 39 14 21 1017.3 1017.2 -
20/12:30am 21.2 - - - - SSE 26 35 14 19 1017.3 - -
20/12:00am 21.3 - - - - S 30 39 16 21 1017.3 1017.2 -
 
Date/Time
EST
Temp
°C
App
Temp
°C
Dew
Point
Rel
Hum
%
Delta-T
°C
Wind Press
QNH
hPa
Press
MSL
hPa
Rain
since 9 am
mm
Dir
 
Spd
km/h
Gust
km/h
Spd
kts
Gust
kts
19/11:30pm 21.2 - - - - SSE 28 35 15 19 1017.4 - -
19/11:00pm 21.2 - - - - S 30 37 16 20 1017.5 1017.4 -
19/10:30pm 21.2 - - - - S 28 35 15 19 1017.6 - -
19/10:00pm 21.3 - - - - SSE 30 37 16 20 1017.5 1017.4 -
19/09:30pm 21.4 - - - - SSE 26 33 14 18 1017.6 - -

Other Formats:

Comma delimited format used in spreadsheet applications
http://www.bom.gov.au/fwo/IDQ60801/IDQ60801.94293.axf

JavaScript Object Notation format (JSON) in row-major order
http://www.bom.gov.au/fwo/IDQ60801/IDQ60801.94293.json